Time;durP1;ratioP1;P1;durP2;ratioP2;P2;SDS_P1;SDS_P2;PMS_P1;PMS_P2;Temp;Humidity;BMP_temperature;BMP_pressure;BME280_temperature;BME280_humidity;BME280_pressure;Samples;Min_cycle;Max_cycle;Signal;HPM_P1;HPM_P2
2022/05/24 00:02:23;;;;;;;5.20;3.17;;;;;;;;;;5001746;28;20817;-84
2022/05/24 00:04:49;;;;;;;7.97;3.33;;;;;;;;;;5016219;28;20412;-82
2022/05/24 00:07:15;;;;;;;6.40;3.80;;;;;;;;;;5017656;28;20412;-83
2022/05/24 00:09:41;;;;;;;13.57;3.40;;;;;;;;;;5016884;28;20440;-83
2022/05/24 00:12:07;;;;;;;3.90;3.23;;;;;;;;;;5017348;28;20397;-83
2022/05/24 00:17:18;;;;;;;7.50;3.83;;;;;;;;;;5017324;28;20408;-83
2022/05/24 00:19:44;;;;;;;11.33;4.23;;;;;;;;;;5009466;28;20420;-84
2022/05/24 00:22:10;;;;;;;7.90;4.20;;;;;;;;;;5003880;28;20472;-84
2022/05/24 00:24:36;;;;;;;7.03;4.13;;;;;;;;;;5003733;28;20427;-84
2022/05/24 00:27:03;;;;;;;8.93;4.20;;;;;;;;;;5001743;28;20396;-84
2022/05/24 00:29:29;;;;;;;4.73;3.20;;;;;;;;;;5000898;28;20448;-84
2022/05/24 00:31:55;;;;;;;8.77;3.80;;;;;;;;;;4999828;28;20412;-84
2022/05/24 00:34:21;;;;;;;6.23;4.00;;;;;;;;;;5001313;28;20464;-84
2022/05/24 00:36:47;;;;;;;8.83;3.33;;;;;;;;;;5001906;28;20400;-84
2022/05/24 00:39:13;;;;;;;7.27;4.47;;;;;;;;;;5000991;28;20472;-85
2022/05/24 00:41:41;;;;;;;9.97;5.13;;;;;;;;;;5001691;28;20472;-84
2022/05/24 00:44:27;;;;;;;8.87;4.53;;;;;;;;;;5001003;28;20438;-84
2022/05/24 00:47:03;;;;;;;7.67;4.00;;;;;;;;;;5001237;28;20416;-83
2022/05/24 00:49:32;;;;;;;8.93;4.87;;;;;;;;;;5001518;28;20440;-84
2022/05/24 00:52:04;;;;;;;12.03;5.80;;;;;;;;;;5001500;28;20423;-84
2022/05/24 00:54:30;;;;;;;10.30;4.80;;;;;;;;;;5001242;28;20492;-84
2022/05/24 00:56:59;;;;;;;8.37;4.73;;;;;;;;;;5001433;28;20480;-84
2022/05/24 00:59:34;;;;;;;10.37;5.03;;;;;;;;;;4999507;28;20429;-84
2022/05/24 01:02:01;;;;;;;7.50;4.60;;;;;;;;;;5000613;28;20467;-84
2022/05/24 01:04:27;;;;;;;6.80;4.93;;;;;;;;;;5000874;28;20405;-84
2022/05/24 01:06:53;;;;;;;9.17;4.83;;;;;;;;;;5000374;28;20404;-84
2022/05/24 01:09:31;;;;;;;9.20;4.80;;;;;;;;;;5000279;28;20416;-84
2022/05/24 01:12:02;;;;;;;11.60;4.80;;;;;;;;;;5001441;28;20392;-84
2022/05/24 01:14:28;;;;;;;8.90;4.87;;;;;;;;;;5003308;28;20404;-83
2022/05/24 01:16:55;;;;;;;5.30;4.27;;;;;;;;;;5002309;28;20479;-83
2022/05/24 01:19:43;;;;;;;6.97;4.60;;;;;;;;;;5000043;28;20412;-84
2022/05/24 01:22:29;;;;;;;6.03;3.43;;;;;;;;;;5000959;28;20397;-83
2022/05/24 01:24:55;;;;;;;9.87;4.60;;;;;;;;;;4980305;28;20423;-83
2022/05/24 01:27:21;;;;;;;8.63;4.93;;;;;;;;;;4999225;28;20404;-84
2022/05/24 01:29:47;;;;;;;5.57;4.33;;;;;;;;;;4981127;28;20433;-84
2022/05/24 01:37:43;;;;;;;8.37;4.43;;;;;;;;;;4980960;28;20985;-84
2022/05/24 01:40:10;;;;;;;8.20;4.77;;;;;;;;;;4988841;28;20440;-84
2022/05/24 01:42:36;;;;;;;9.00;4.87;;;;;;;;;;4999868;28;20420;-84
2022/05/24 01:45:05;;;;;;;7.80;5.10;;;;;;;;;;5000218;28;20411;-84
2022/05/24 01:47:32;;;;;;;8.90;4.50;;;;;;;;;;4999635;28;20440;-84
2022/05/24 01:50:00;;;;;;;9.93;4.60;;;;;;;;;;5000392;28;20762;-84
2022/05/24 01:52:32;;;;;;;6.67;4.13;;;;;;;;;;5000700;28;20575;-84
2022/05/24 01:55:14;;;;;;;4.87;3.90;;;;;;;;;;5000110;28;20913;-84
2022/05/24 01:57:43;;;;;;;7.97;4.70;;;;;;;;;;4999527;28;20412;-84
2022/05/24 02:00:10;;;;;;;10.93;4.90;;;;;;;;;;5000214;28;20507;-84
2022/05/24 02:02:36;;;;;;;7.37;4.53;;;;;;;;;;5000293;28;20922;-84
2022/05/24 02:05:03;;;;;;;8.47;4.60;;;;;;;;;;4999770;28;20804;-84
2022/05/24 02:07:29;;;;;;;9.10;4.60;;;;;;;;;;4999289;28;20416;-84
2022/05/24 02:12:31;;;;;;;5.50;4.87;;;;;;;;;;5010016;28;20476;-85
2022/05/24 02:14:59;;;;;;;8.70;5.10;;;;;;;;;;4981845;28;20518;-83
2022/05/24 02:17:28;;;;;;;8.50;4.57;;;;;;;;;;4993377;28;20530;-84
2022/05/24 02:19:56;;;;;;;6.03;3.63;;;;;;;;;;5001453;28;20773;-83
2022/05/24 02:22:23;;;;;;;7.23;4.80;;;;;;;;;;5001701;28;20415;-85
2022/05/24 02:25:06;;;;;;;6.83;4.97;;;;;;;;;;5015451;28;20428;-84
2022/05/24 02:27:32;;;;;;;9.37;4.30;;;;;;;;;;5011548;28;20426;-87
2022/05/24 02:29:58;;;;;;;10.30;4.30;;;;;;;;;;5018162;28;20496;-84
2022/05/24 02:32:24;;;;;;;8.57;5.17;;;;;;;;;;5018225;28;20411;-86
2022/05/24 02:34:51;;;;;;;8.60;4.70;;;;;;;;;;5000716;28;20470;-84
2022/05/24 02:37:17;;;;;;;8.23;4.60;;;;;;;;;;5005668;28;20515;-83
2022/05/24 02:42:28;;;;;;;7.20;4.93;;;;;;;;;;4998928;28;20806;-85
2022/05/24 02:44:54;;;;;;;7.13;5.40;;;;;;;;;;4981344;28;20796;-85
2022/05/24 02:47:20;;;;;;;6.20;5.17;;;;;;;;;;4998182;28;20404;-84
2022/05/24 02:49:46;;;;;;;9.60;4.50;;;;;;;;;;4981192;28;20788;-84
2022/05/24 02:52:12;;;;;;;5.00;4.10;;;;;;;;;;4999003;28;20439;-85
2022/05/24 02:54:39;;;;;;;8.13;4.90;;;;;;;;;;5000682;28;20458;-85
2022/05/24 02:57:05;;;;;;;9.63;4.93;;;;;;;;;;5002067;28;20506;-84
2022/05/24 02:59:33;;;;;;;10.03;5.20;;;;;;;;;;4984857;28;20408;-82
2022/05/24 03:01:59;;;;;;;8.00;5.00;;;;;;;;;;4984731;28;20436;-85
2022/05/24 03:04:25;;;;;;;11.40;5.80;;;;;;;;;;5004231;28;20815;-85
2022/05/24 03:09:36;;;;;;;4.93;4.27;;;;;;;;;;5021155;28;20386;-85
2022/05/24 03:14:49;;;;;;;5.57;4.13;;;;;;;;;;5019431;28;20451;-82
2022/05/24 03:17:16;;;;;;;8.07;4.50;;;;;;;;;;4982713;28;20420;-84
2022/05/24 03:19:42;;;;;;;6.13;4.60;;;;;;;;;;5000639;28;20404;-83
2022/05/24 03:22:11;;;;;;;6.00;4.40;;;;;;;;;;5000862;28;20454;-84
2022/05/24 03:24:37;;;;;;;6.60;4.40;;;;;;;;;;5008752;28;20416;-84
2022/05/24 03:27:22;;;;;;;5.53;4.00;;;;;;;;;;4998353;28;20420;-83
2022/05/24 03:29:48;;;;;;;6.50;4.63;;;;;;;;;;5002631;28;20424;-84
2022/05/24 03:32:15;;;;;;;6.90;4.93;;;;;;;;;;4990802;28;20447;-86
2022/05/24 03:34:42;;;;;;;5.20;4.40;;;;;;;;;;5003002;28;20463;-85
2022/05/24 03:37:08;;;;;;;8.90;5.23;;;;;;;;;;4985673;28;20464;-84
2022/05/24 03:39:35;;;;;;;10.30;5.33;;;;;;;;;;4985077;28;20439;-85
2022/05/24 03:42:01;;;;;;;8.93;5.60;;;;;;;;;;4985440;28;20475;-86
2022/05/24 03:44:28;;;;;;;6.40;4.27;;;;;;;;;;5002111;28;20410;-85
2022/05/24 03:46:54;;;;;;;7.30;4.80;;;;;;;;;;4984353;28;20400;-84
2022/05/24 03:49:20;;;;;;;6.33;4.57;;;;;;;;;;4985805;28;20409;-85
2022/05/24 03:51:46;;;;;;;6.60;4.57;;;;;;;;;;4984162;28;20428;-84
2022/05/24 03:54:13;;;;;;;13.53;6.50;;;;;;;;;;4984644;28;20392;-85
2022/05/24 03:57:59;;;;;;;6.10;4.33;;;;;;;;;;5002158;28;20982;-82
2022/05/24 03:59:25;;;;;;;8.77;4.20;;;;;;;;;;5006481;28;20435;-82
2022/05/24 04:01:51;;;;;;;9.63;4.10;;;;;;;;;;4992784;28;20965;-84
2022/05/24 04:04:17;;;;;;;7.33;4.77;;;;;;;;;;5004357;28;20438;-84
2022/05/24 04:06:43;;;;;;;4.73;4.20;;;;;;;;;;5012041;28;20401;-85
2022/05/24 04:09:09;;;;;;;6.73;5.00;;;;;;;;;;4987641;28;20404;-86
2022/05/24 04:11:35;;;;;;;5.67;4.53;;;;;;;;;;5002786;28;20540;-84
2022/05/24 04:14:01;;;;;;;6.90;3.60;;;;;;;;;;4984655;28;20488;-86
2022/05/24 04:16:27;;;;;;;6.23;4.37;;;;;;;;;;4984438;28;20460;-84
2022/05/24 04:18:53;;;;;;;6.37;4.50;;;;;;;;;;4984806;28;20409;-86
2022/05/24 04:21:19;;;;;;;7.47;5.40;;;;;;;;;;4983610;28;20432;-85
2022/05/24 04:23:45;;;;;;;8.40;5.17;;;;;;;;;;5001673;28;20416;-85
2022/05/24 04:26:11;;;;;;;7.17;4.37;;;;;;;;;;4984769;28;20462;-84
2022/05/24 04:28:38;;;;;;;8.13;4.50;;;;;;;;;;5001616;28;20427;-84
2022/05/24 04:31:04;;;;;;;6.70;4.50;;;;;;;;;;5001596;28;20439;-85
2022/05/24 04:33:31;;;;;;;6.97;4.00;;;;;;;;;;5001812;28;20802;-84
2022/05/24 04:35:57;;;;;;;5.70;3.83;;;;;;;;;;4983444;28;20832;-85
2022/05/24 04:38:23;;;;;;;6.03;4.07;;;;;;;;;;5009423;28;20774;-84
2022/05/24 04:43:36;;;;;;;5.90;4.40;;;;;;;;;;5001928;28;20404;-85
2022/05/24 04:46:02;;;;;;;6.23;3.97;;;;;;;;;;4984343;28;20420;-85
2022/05/24 04:48:29;;;;;;;8.57;4.87;;;;;;;;;;5001652;28;20440;-85
2022/05/24 04:50:56;;;;;;;6.13;5.00;;;;;;;;;;5002133;28;20428;-86
2022/05/24 04:53:22;;;;;;;5.93;4.60;;;;;;;;;;5001464;28;20416;-85
2022/05/24 04:55:49;;;;;;;5.60;4.50;;;;;;;;;;4983602;28;20463;-85
2022/05/24 04:58:16;;;;;;;8.20;4.93;;;;;;;;;;5000937;28;20423;-84
2022/05/24 05:00:42;;;;;;;7.50;5.50;;;;;;;;;;4984885;28;20431;-85
2022/05/24 05:03:13;;;;;;;9.13;5.20;;;;;;;;;;4985904;28;20425;-85
2022/05/24 05:05:39;;;;;;;6.80;4.30;;;;;;;;;;5002634;28;20411;-85
2022/05/24 05:08:06;;;;;;;5.00;4.33;;;;;;;;;;4985184;28;20420;-85
2022/05/24 05:10:36;;;;;;;5.80;4.47;;;;;;;;;;4986232;28;20820;-85
2022/05/24 05:13:04;;;;;;;5.73;4.33;;;;;;;;;;5001217;28;20506;-85
2022/05/24 05:15:34;;;;;;;7.43;4.40;;;;;;;;;;5001099;28;20503;-83
2022/05/24 05:18:11;;;;;;;8.27;5.40;;;;;;;;;;4982509;28;20909;-85
2022/05/24 05:20:39;;;;;;;7.43;5.50;;;;;;;;;;4982902;28;20500;-84
2022/05/24 05:23:09;;;;;;;7.10;5.67;;;;;;;;;;5000295;28;20412;-85
2022/05/24 05:25:35;;;;;;;6.73;4.80;;;;;;;;;;4982623;28;20475;-86
2022/05/24 05:28:02;;;;;;;5.93;4.93;;;;;;;;;;5000130;28;20405;-86
2022/05/24 05:33:14;;;;;;;8.57;3.83;;;;;;;;;;5000532;28;20443;-85
2022/05/24 05:35:40;;;;;;;5.07;4.07;;;;;;;;;;4983067;28;20486;-84
2022/05/24 05:38:06;;;;;;;5.60;4.33;;;;;;;;;;5000714;28;20408;-85
2022/05/24 05:40:32;;;;;;;9.57;4.63;;;;;;;;;;5000542;28;20428;-85
2022/05/24 05:42:58;;;;;;;9.00;4.17;;;;;;;;;;5004360;28;20784;-85
2022/05/24 05:45:24;;;;;;;6.67;5.20;;;;;;;;;;4983770;28;20414;-85
2022/05/24 05:47:52;;;;;;;7.03;4.50;;;;;;;;;;4984155;28;20412;-85
2022/05/24 05:50:20;;;;;;;7.27;5.37;;;;;;;;;;4983987;28;20443;-84
2022/05/24 05:52:46;;;;;;;7.23;4.13;;;;;;;;;;5001327;28;20475;-83
2022/05/24 05:55:12;;;;;;;7.27;4.10;;;;;;;;;;5000841;28;20445;-84
2022/05/24 05:57:38;;;;;;;4.37;3.50;;;;;;;;;;4983564;28;20408;-84
2022/05/24 06:00:05;;;;;;;4.50;4.10;;;;;;;;;;4983657;28;20439;-84
2022/05/24 06:02:31;;;;;;;6.07;4.10;;;;;;;;;;4999944;28;20400;-86
2022/05/24 06:04:57;;;;;;;6.87;4.10;;;;;;;;;;5000364;28;20500;-86
2022/05/24 06:07:23;;;;;;;5.20;3.43;;;;;;;;;;4982983;28;20416;-86
2022/05/24 06:09:50;;;;;;;7.00;4.33;;;;;;;;;;4981832;28;20443;-85
2022/05/24 06:12:17;;;;;;;5.17;3.60;;;;;;;;;;5001107;28;20448;-87
2022/05/24 06:14:43;;;;;;;4.93;3.20;;;;;;;;;;4983279;28;20613;-86
2022/05/24 06:17:10;;;;;;;4.87;3.10;;;;;;;;;;4982262;28;20412;-86
2022/05/24 06:19:36;;;;;;;6.50;4.10;;;;;;;;;;4981894;28;20422;-86
2022/05/24 06:22:03;;;;;;;4.67;3.53;;;;;;;;;;4981578;28;20440;-85
2022/05/24 06:24:29;;;;;;;4.53;3.50;;;;;;;;;;4999380;28;20414;-84
2022/05/24 06:26:56;;;;;;;5.73;3.20;;;;;;;;;;4981566;28;20479;-86
2022/05/24 06:29:23;;;;;;;5.23;2.97;;;;;;;;;;4983381;28;20471;-86
2022/05/24 06:31:49;;;;;;;6.93;2.97;;;;;;;;;;4986042;28;20439;-86
2022/05/24 06:34:15;;;;;;;4.60;3.00;;;;;;;;;;4985601;28;20420;-84
2022/05/24 06:36:41;;;;;;;4.23;3.03;;;;;;;;;;4986538;28;20460;-83
2022/05/24 06:39:07;;;;;;;4.10;2.53;;;;;;;;;;5002800;28;20407;-85
2022/05/24 06:41:33;;;;;;;5.83;3.80;;;;;;;;;;4985202;28;20525;-84
2022/05/24 06:43:59;;;;;;;4.40;3.60;;;;;;;;;;4984653;28;20432;-83
2022/05/24 06:46:26;;;;;;;6.10;3.90;;;;;;;;;;5002234;28;20408;-85
2022/05/24 06:48:52;;;;;;;7.53;3.63;;;;;;;;;;4983335;28;20408;-86
2022/05/24 06:51:19;;;;;;;5.23;3.90;;;;;;;;;;5000915;28;20444;-85
2022/05/24 06:53:46;;;;;;;5.90;3.30;;;;;;;;;;4999597;28;20404;-84
2022/05/24 06:56:13;;;;;;;5.70;3.30;;;;;;;;;;5000172;28;20511;-85
2022/05/24 06:58:39;;;;;;;9.93;4.20;;;;;;;;;;5000172;28;20409;-84
2022/05/24 07:03:51;;;;;;;5.80;3.77;;;;;;;;;;5002594;28;20384;-85
2022/05/24 07:06:17;;;;;;;8.43;3.70;;;;;;;;;;5002438;28;20408;-85
2022/05/24 07:08:43;;;;;;;7.67;3.63;;;;;;;;;;4988155;28;20427;-86
2022/05/24 07:11:10;;;;;;;5.60;2.90;;;;;;;;;;5003186;28;20463;-86
2022/05/24 07:13:36;;;;;;;5.90;4.30;;;;;;;;;;5002952;28;20404;-85
2022/05/24 07:16:03;;;;;;;6.90;4.73;;;;;;;;;;4986955;28;20460;-86
2022/05/24 07:18:29;;;;;;;6.70;4.00;;;;;;;;;;5003971;28;20400;-88
2022/05/24 07:20:55;;;;;;;6.20;4.20;;;;;;;;;;4986152;28;20976;-86
2022/05/24 07:23:24;;;;;;;9.23;4.83;;;;;;;;;;4985504;28;20775;-85
2022/05/24 07:25:51;;;;;;;5.70;4.20;;;;;;;;;;5005924;28;20419;-86
2022/05/24 07:28:18;;;;;;;8.70;4.87;;;;;;;;;;5019058;28;20414;-86
2022/05/24 07:30:44;;;;;;;5.93;4.23;;;;;;;;;;4988402;28;20443;-87
2022/05/24 07:33:12;;;;;;;7.20;4.33;;;;;;;;;;4988889;28;20407;-87
2022/05/24 07:35:38;;;;;;;6.80;4.33;;;;;;;;;;4990331;28;20522;-85
2022/05/24 07:38:08;;;;;;;9.83;4.50;;;;;;;;;;5013540;28;20431;-86
2022/05/24 07:46:08;;;;;;;6.80;4.23;;;;;;;;;;5003378;28;20834;-86
2022/05/24 07:48:34;;;;;;;9.90;4.20;;;;;;;;;;5017326;28;20431;-88
2022/05/24 07:51:01;;;;;;;6.97;5.87;;;;;;;;;;5004249;28;20438;-86
2022/05/24 07:53:27;;;;;;;6.90;4.80;;;;;;;;;;5008034;28;20451;-87
2022/05/24 07:55:57;;;;;;;23.97;7.60;;;;;;;;;;4990490;28;20562;-87
2022/05/24 07:58:24;;;;;;;12.87;7.33;;;;;;;;;;5016707;28;20416;-88
2022/05/24 08:00:50;;;;;;;16.10;7.77;;;;;;;;;;4993340;28;20482;-85
2022/05/24 08:03:17;;;;;;;14.60;8.77;;;;;;;;;;5015898;28;20439;-85
2022/05/24 08:05:43;;;;;;;12.37;8.60;;;;;;;;;;4993968;28;20431;-86
2022/05/24 08:08:10;;;;;;;18.57;10.37;;;;;;;;;;4983213;28;20929;-85
2022/05/24 08:10:37;;;;;;;17.10;9.70;;;;;;;;;;5000979;28;20627;-87
2022/05/24 08:13:06;;;;;;;12.43;9.50;;;;;;;;;;5038942;23;20926;-84
2022/05/24 08:15:32;;;;;;;21.83;11.50;;;;;;;;;;5045303;28;20462;-82
2022/05/24 08:17:59;;;;;;;12.20;9.83;;;;;;;;;;5050741;28;20413;-83
2022/05/24 08:20:25;;;;;;;15.93;9.43;;;;;;;;;;5036770;28;20427;-83
2022/05/24 08:22:51;;;;;;;14.70;9.83;;;;;;;;;;5041828;28;20429;-83
2022/05/24 08:25:18;;;;;;;13.40;9.60;;;;;;;;;;5063087;28;20428;-82
2022/05/24 08:27:44;;;;;;;13.57;10.37;;;;;;;;;;5081853;28;20400;-84
2022/05/24 08:30:12;;;;;;;14.80;10.10;;;;;;;;;;5070168;28;20410;-83
2022/05/24 08:32:38;;;;;;;10.90;9.20;;;;;;;;;;5062157;28;20398;-83
2022/05/24 08:35:05;;;;;;;9.97;8.17;;;;;;;;;;5044268;28;20501;-83
2022/05/24 08:37:31;;;;;;;8.97;7.03;;;;;;;;;;5062246;28;20408;-81
2022/05/24 08:39:59;;;;;;;11.80;8.80;;;;;;;;;;5062147;28;20397;-83
2022/05/24 08:42:43;;;;;;;11.10;7.37;;;;;;;;;;5062182;28;20432;-83
2022/05/24 08:50:52;;;;;;;17.30;11.30;;;;;;;;;;5061582;28;20939;-83
2022/05/24 08:53:26;;;;;;;17.23;10.40;;;;;;;;;;5043695;28;20426;-83
2022/05/24 08:55:52;;;;;;;10.10;7.30;;;;;;;;;;5061501;28;20441;-83
2022/05/24 08:58:30;;;;;;;12.00;8.03;;;;;;;;;;5061370;28;20408;-83
2022/05/24 09:00:56;;;;;;;7.20;6.10;;;;;;;;;;5062116;28;20401;-83
2022/05/24 09:03:25;;;;;;;10.13;6.40;;;;;;;;;;5063081;28;20942;-83
2022/05/24 09:05:57;;;;;;;6.60;5.30;;;;;;;;;;5063812;28;20822;-83
2022/05/24 09:08:30;;;;;;;6.50;4.70;;;;;;;;;;5060017;28;20385;-86
2022/05/24 09:11:15;;;;;;;6.90;3.50;;;;;;;;;;5049512;28;20411;-86
2022/05/24 09:13:51;;;;;;;6.97;4.87;;;;;;;;;;5068079;28;20445;-83
2022/05/24 09:16:25;;;;;;;6.30;5.00;;;;;;;;;;5062803;28;20473;-84
2022/05/24 09:18:55;;;;;;;9.40;4.70;;;;;;;;;;5068387;28;20488;-83
2022/05/24 09:21:22;;;;;;;8.63;7.43;;;;;;;;;;5060821;28;20440;-84
2022/05/24 09:23:51;;;;;;;9.23;6.70;;;;;;;;;;5057247;28;20909;-83
2022/05/24 09:26:24;;;;;;;5.97;4.33;;;;;;;;;;5056884;28;20959;-82
2022/05/24 09:28:51;;;;;;;6.20;5.50;;;;;;;;;;5057170;28;20416;-82
2022/05/24 09:31:41;;;;;;;10.00;7.63;;;;;;;;;;5058401;28;20409;-82
2022/05/24 09:34:25;;;;;;;12.37;6.80;;;;;;;;;;5047448;28;20822;-83
2022/05/24 09:36:59;;;;;;;6.43;4.97;;;;;;;;;;5041980;28;20453;-83
2022/05/24 09:39:26;;;;;;;5.67;4.80;;;;;;;;;;5059153;28;20500;-83
2022/05/24 09:42:02;;;;;;;8.10;5.60;;;;;;;;;;5056942;28;20416;-84
2022/05/24 09:44:29;;;;;;;3.63;3.33;;;;;;;;;;5058466;28;20444;-84
2022/05/24 09:46:56;;;;;;;6.20;5.17;;;;;;;;;;5058723;28;20413;-84
2022/05/24 09:49:27;;;;;;;5.20;3.50;;;;;;;;;;5060321;28;20409;-84
2022/05/24 09:51:56;;;;;;;8.93;7.90;;;;;;;;;;5063037;28;20878;-84
2022/05/24 09:54:24;;;;;;;4.70;4.20;;;;;;;;;;5064584;28;20488;-84
2022/05/24 09:57:10;;;;;;;4.60;4.00;;;;;;;;;;5069640;28;20437;-83
2022/05/24 09:59:40;;;;;;;6.27;4.70;;;;;;;;;;5074508;28;20390;-82
2022/05/24 10:02:22;;;;;;;5.23;4.00;;;;;;;;;;5054291;28;20786;-83
2022/05/24 10:04:48;;;;;;;4.93;4.13;;;;;;;;;;5057683;28;20414;-84
2022/05/24 10:07:33;;;;;;;4.70;3.83;;;;;;;;;;5075838;28;20439;-83
2022/05/24 10:10:14;;;;;;;5.43;3.13;;;;;;;;;;5057884;28;20424;-83
2022/05/24 10:12:58;;;;;;;5.50;3.50;;;;;;;;;;5065042;28;20436;-86
2022/05/24 10:15:39;;;;;;;6.83;4.10;;;;;;;;;;5062762;28;20886;-84
2022/05/24 10:18:08;;;;;;;4.77;3.70;;;;;;;;;;5065148;28;20389;-84
2022/05/24 10:20:35;;;;;;;3.90;2.87;;;;;;;;;;5066436;28;20420;-84
2022/05/24 10:23:11;;;;;;;4.83;3.87;;;;;;;;;;5047449;28;20433;-84
2022/05/24 10:25:37;;;;;;;4.10;3.13;;;;;;;;;;5066127;28;20420;-84
2022/05/24 10:28:15;;;;;;;5.00;4.03;;;;;;;;;;5085353;28;20422;-83
2022/05/24 10:30:51;;;;;;;5.00;2.80;;;;;;;;;;5084641;28;20431;-84
2022/05/24 10:39:16;;;;;;;6.67;2.90;;;;;;;;;;5064149;28;20372;-84
2022/05/24 10:41:49;;;;;;;4.23;3.53;;;;;;;;;;5064053;28;20382;-84
2022/05/24 10:44:30;;;;;;;3.60;2.70;;;;;;;;;;5067318;28;20397;-84
2022/05/24 10:47:02;;;;;;;6.00;3.90;;;;;;;;;;5051310;28;20405;-83
2022/05/24 10:49:29;;;;;;;4.80;3.97;;;;;;;;;;5065393;28;20438;-83
2022/05/24 10:52:00;;;;;;;5.23;3.20;;;;;;;;;;5047748;28;20428;-83
2022/05/24 10:54:44;;;;;;;4.40;2.60;;;;;;;;;;5064526;28;20410;-83
2022/05/24 10:57:10;;;;;;;3.27;2.70;;;;;;;;;;5064732;28;20418;-83
2022/05/24 10:59:45;;;;;;;4.03;2.70;;;;;;;;;;5065134;28;20924;-83
2022/05/24 11:02:31;;;;;;;4.43;2.67;;;;;;;;;;5063985;28;20482;-84
2022/05/24 11:05:02;;;;;;;3.20;2.90;;;;;;;;;;5032645;28;20414;-84
2022/05/24 11:07:29;;;;;;;4.97;2.20;;;;;;;;;;5064394;28;20390;-83
2022/05/24 11:09:59;;;;;;;2.90;2.50;;;;;;;;;;5063670;28;20397;-83
2022/05/24 11:12:28;;;;;;;7.10;3.27;;;;;;;;;;5063196;28;20421;-84
2022/05/24 11:15:03;;;;;;;4.23;2.93;;;;;;;;;;5063744;28;20477;-84
2022/05/24 11:17:29;;;;;;;5.27;2.50;;;;;;;;;;5063811;28;20389;-83
2022/05/24 11:19:56;;;;;;;3.77;2.70;;;;;;;;;;5063562;28;20398;-84
2022/05/24 11:22:32;;;;;;;4.33;2.60;;;;;;;;;;5045758;28;20426;-84
2022/05/24 11:25:17;;;;;;;3.87;1.90;;;;;;;;;;5064237;28;20439;-83
2022/05/24 11:27:50;;;;;;;3.57;2.10;;;;;;;;;;5063311;28;20492;-82
2022/05/24 11:30:32;;;;;;;3.77;2.27;;;;;;;;;;5063485;28;20805;-83
2022/05/24 11:33:09;;;;;;;5.03;2.90;;;;;;;;;;5043105;28;20446;-83
2022/05/24 11:35:46;;;;;;;3.07;2.43;;;;;;;;;;5043512;28;20522;-83
2022/05/24 11:38:16;;;;;;;3.70;2.77;;;;;;;;;;5043396;28;20436;-82
2022/05/24 11:40:55;;;;;;;2.63;2.10;;;;;;;;;;5049282;28;20417;-83
2022/05/24 11:43:36;;;;;;;5.50;2.90;;;;;;;;;;5063099;28;20433;-83
2022/05/24 11:46:07;;;;;;;7.50;3.37;;;;;;;;;;5044644;28;20864;-83
2022/05/24 11:48:53;;;;;;;3.83;3.30;;;;;;;;;;5062777;28;20462;-83
2022/05/24 11:51:28;;;;;;;5.70;3.17;;;;;;;;;;5063418;28;20463;-82
2022/05/24 11:53:54;;;;;;;2.97;2.40;;;;;;;;;;5063524;28;20440;-83
2022/05/24 11:56:21;;;;;;;4.57;2.90;;;;;;;;;;5064755;28;20552;-83
2022/05/24 11:58:51;;;;;;;5.70;3.77;;;;;;;;;;5062404;28;20398;-83
2022/05/24 12:01:17;;;;;;;5.33;3.43;;;;;;;;;;5062207;28;20406;-82
2022/05/24 12:10:02;;;;;;;3.90;2.80;;;;;;;;;;5077962;28;20782;-83
2022/05/24 12:12:50;;;;;;;4.33;2.50;;;;;;;;;;5062515;28;20394;-84
2022/05/24 12:15:16;;;;;;;5.80;2.80;;;;;;;;;;5045024;28;20452;-82
2022/05/24 12:17:44;;;;;;;3.77;2.63;;;;;;;;;;5044514;28;20409;-83
2022/05/24 12:20:29;;;;;;;3.20;2.90;;;;;;;;;;5062507;28;20816;-82
2022/05/24 12:23:07;;;;;;;4.00;3.53;;;;;;;;;;5065032;28;20493;-82
2022/05/24 12:25:51;;;;;;;3.93;2.97;;;;;;;;;;5063145;28;20394;-83
2022/05/24 12:28:18;;;;;;;3.93;2.37;;;;;;;;;;5062891;28;20465;-85
2022/05/24 12:30:45;;;;;;;4.73;2.17;;;;;;;;;;5065039;28;20441;-83
2022/05/24 12:33:30;;;;;;;2.60;2.17;;;;;;;;;;5076167;28;20443;-82
2022/05/24 12:35:59;;;;;;;2.37;1.70;;;;;;;;;;5066179;28;20476;-83
2022/05/24 12:38:27;;;;;;;5.13;2.73;;;;;;;;;;5065960;28;20406;-83
2022/05/24 12:41:11;;;;;;;4.20;2.70;;;;;;;;;;5064532;28;20408;-84
2022/05/24 12:43:38;;;;;;;4.00;2.43;;;;;;;;;;5072618;28;20422;-82
2022/05/24 12:46:04;;;;;;;3.10;2.73;;;;;;;;;;5075818;28;20408;-83
2022/05/24 12:48:30;;;;;;;7.00;4.17;;;;;;;;;;5047636;28;20496;-84
2022/05/24 12:51:02;;;;;;;4.70;4.17;;;;;;;;;;5065871;28;20432;-82
2022/05/24 12:53:28;;;;;;;6.17;4.40;;;;;;;;;;5072167;28;20508;-83
2022/05/24 12:55:56;;;;;;;7.00;5.10;;;;;;;;;;5074130;28;20600;-83
2022/05/24 12:58:34;;;;;;;4.03;3.63;;;;;;;;;;5064919;28;20405;-83
2022/05/24 13:01:30;;;;;;;5.50;3.67;;;;;;;;;;5047905;28;20926;-82
2022/05/24 13:03:56;;;;;;;4.00;3.60;;;;;;;;;;5045794;28;20795;-83
2022/05/24 13:06:26;;;;;;;3.73;3.43;;;;;;;;;;5073740;28;20404;-82
2022/05/24 13:09:11;;;;;;;3.90;3.40;;;;;;;;;;5044070;28;20761;-82
2022/05/24 13:11:37;;;;;;;3.27;2.60;;;;;;;;;;5070081;28;20817;-83
2022/05/24 13:14:04;;;;;;;2.60;2.40;;;;;;;;;;5074708;28;20452;-83
2022/05/24 13:16:30;;;;;;;4.80;2.53;;;;;;;;;;5063971;28;20445;-83
2022/05/24 13:18:57;;;;;;;3.67;2.43;;;;;;;;;;5073432;28;20405;-82
2022/05/24 13:21:24;;;;;;;3.93;2.37;;;;;;;;;;5072951;28;20398;-83
2022/05/24 13:24:08;;;;;;;3.43;2.87;;;;;;;;;;5071775;28;20431;-85
2022/05/24 13:26:34;;;;;;;2.30;1.93;;;;;;;;;;5046997;28;20401;-84
2022/05/24 13:29:20;;;;;;;4.00;2.30;;;;;;;;;;5067595;28;20414;-82
2022/05/24 13:34:35;;;;;;;3.70;2.20;;;;;;;;;;5056916;28;20461;-82
2022/05/24 13:37:07;;;;;;;3.47;1.77;;;;;;;;;;5071449;28;20448;-82
2022/05/24 13:39:39;;;;;;;4.30;2.80;;;;;;;;;;5057294;28;20417;-83
2022/05/24 13:42:18;;;;;;;3.07;2.77;;;;;;;;;;5067512;28;20405;-82
2022/05/24 13:45:03;;;;;;;3.33;2.37;;;;;;;;;;5089183;28;20432;-82
2022/05/24 13:47:39;;;;;;;2.50;1.90;;;;;;;;;;5074945;28;20402;-83
2022/05/24 13:50:24;;;;;;;3.80;2.60;;;;;;;;;;5086056;28;20413;-83
2022/05/24 13:52:50;;;;;;;2.47;2.07;;;;;;;;;;5065255;28;20493;-82
2022/05/24 13:55:18;;;;;;;2.20;2.00;;;;;;;;;;5075080;28;20859;-83
2022/05/24 13:57:57;;;;;;;2.43;1.57;;;;;;;;;;5063837;28;20413;-84
2022/05/24 14:00:25;;;;;;;2.50;1.90;;;;;;;;;;5077153;28;20726;-83
2022/05/24 14:02:54;;;;;;;4.00;2.23;;;;;;;;;;5065485;28;20863;-84
2022/05/24 14:05:29;;;;;;;2.10;1.70;;;;;;;;;;5075305;28;20413;-84
2022/05/24 14:07:55;;;;;;;4.20;2.30;;;;;;;;;;5061071;28;20409;-84
2022/05/24 14:10:21;;;;;;;2.00;1.80;;;;;;;;;;5076898;28;20412;-83
2022/05/24 14:12:47;;;;;;;3.70;2.10;;;;;;;;;;5061762;28;20495;-83
2022/05/24 14:15:13;;;;;;;7.37;2.37;;;;;;;;;;5067600;28;20448;-83
2022/05/24 14:17:41;;;;;;;3.10;2.27;;;;;;;;;;5078198;28;20896;-83
2022/05/24 14:20:08;;;;;;;3.20;2.20;;;;;;;;;;5066756;28;20405;-83
2022/05/24 14:22:34;;;;;;;2.63;2.13;;;;;;;;;;5076150;28;20408;-83
2022/05/24 14:25:00;;;;;;;2.93;2.37;;;;;;;;;;5065037;28;20401;-84
2022/05/24 14:27:26;;;;;;;4.03;2.10;;;;;;;;;;5067933;28;20417;-84
2022/05/24 14:29:52;;;;;;;4.80;2.67;;;;;;;;;;5073138;28;20408;-84
2022/05/24 14:32:18;;;;;;;2.73;2.30;;;;;;;;;;5046806;28;20797;-83
2022/05/24 14:34:44;;;;;;;3.03;2.63;;;;;;;;;;5076907;28;20477;-83
2022/05/24 14:37:11;;;;;;;3.73;2.47;;;;;;;;;;5048113;28;20424;-83
2022/05/24 14:39:37;;;;;;;2.60;2.40;;;;;;;;;;5070575;28;20413;-83
2022/05/24 14:42:03;;;;;;;4.13;2.20;;;;;;;;;;5074408;28;20396;-83
2022/05/24 14:44:31;;;;;;;2.67;2.43;;;;;;;;;;5063654;28;20504;-84
2022/05/24 14:46:58;;;;;;;3.23;2.27;;;;;;;;;;5072447;28;20424;-83
2022/05/24 14:49:25;;;;;;;3.13;2.53;;;;;;;;;;5073026;28;20420;-83
2022/05/24 14:52:02;;;;;;;3.17;2.13;;;;;;;;;;5056224;28;20421;-82
2022/05/24 14:54:28;;;;;;;2.90;2.47;;;;;;;;;;5065533;28;20456;-83
2022/05/24 14:56:54;;;;;;;4.57;2.83;;;;;;;;;;5072276;28;20452;-83
2022/05/24 14:59:22;;;;;;;2.90;2.57;;;;;;;;;;5076732;28;20406;-83
2022/05/24 15:01:48;;;;;;;2.77;2.37;;;;;;;;;;5056410;28;20469;-82
2022/05/24 15:04:15;;;;;;;2.87;2.37;;;;;;;;;;5069859;28;20437;-85
2022/05/24 15:06:43;;;;;;;4.00;2.67;;;;;;;;;;5066840;28;20942;-83
2022/05/24 15:17:33;;;;;;;10.63;5.13;;;;;;;;;;5050558;28;20425;-84
2022/05/24 15:20:10;;;;;;;6.93;3.70;;;;;;;;;;5049043;28;20673;-86
2022/05/24 15:22:39;;;;;;;3.90;2.80;;;;;;;;;;5049463;28;20410;-86
2022/05/24 15:25:06;;;;;;;4.30;2.70;;;;;;;;;;5045538;28;20396;-86
2022/05/24 15:27:33;;;;;;;2.90;2.60;;;;;;;;;;5031134;28;20392;-84
2022/05/24 15:29:59;;;;;;;4.03;2.20;;;;;;;;;;5014382;28;20419;-85
2022/05/24 15:32:25;;;;;;;2.47;1.90;;;;;;;;;;5031567;28;20423;-85
2022/05/24 15:34:54;;;;;;;5.43;2.20;;;;;;;;;;5033622;28;20412;-85
2022/05/24 15:37:20;;;;;;;3.57;2.43;;;;;;;;;;5033652;28;20399;-85
2022/05/24 15:39:46;;;;;;;2.50;2.20;;;;;;;;;;5030418;28;20439;-86
2022/05/24 15:42:28;;;;;;;4.87;2.00;;;;;;;;;;5012488;28;20434;-85
2022/05/24 15:44:59;;;;;;;3.23;2.20;;;;;;;;;;5022079;28;20412;-85
2022/05/24 15:47:25;;;;;;;2.37;2.07;;;;;;;;;;5009341;28;20428;-85
2022/05/24 15:49:58;;;;;;;3.30;2.00;;;;;;;;;;5011277;28;20432;-85
2022/05/24 15:52:24;;;;;;;2.50;2.03;;;;;;;;;;4991141;28;20432;-85
2022/05/24 15:54:50;;;;;;;4.23;2.27;;;;;;;;;;5009242;28;20457;-85
2022/05/24 15:57:19;;;;;;;4.53;2.40;;;;;;;;;;5009317;28;20404;-86